Northborough, Massachusetts
Current Conditions -  °F | °C
As of 10:25 PM on Wednesday 22 Oct 2014 (Local Time) from KORH Reporting Station
Thunderstorm Thunderstorm  
Wind Chill: 37°   Ceiling: 400
Heat Index: 45°   Visibility: 2.5mi
Dew Point: 44°   Wind: 18mph
Humidity: 97%   Direction: 30°NNE
Pressure: 29.81"   Gusts: 31mph
Location:  42.32°N, 71.64°W
Report Text: KORH 230225Z AUTO 03016G27KT 2 1/2SM VCTS RA BR OVC004 07/07 A2981 RMK AO2 PK WND 05033/0214 TWR VIS 3 LTG DSNT E AND SW CIG 002V009 P0005 T00720067
Loading
Personal Weather Stations






























Interactive Weather Map
Tropical Storm Tracking
New forecast layout! Learn more

10-Day Weather Forecast

Advertisements
Track Severe Weather on mobile